createdAt,value
2016-02-25T00:00:31.601Z,0
2016-02-25T00:01:31.574Z,0
2016-02-25T00:02:31.529Z,0
2016-02-25T00:03:31.516Z,0
2016-02-25T00:04:31.473Z,0
2016-02-25T00:05:31.444Z,0
2016-02-25T00:06:31.415Z,0
2016-02-25T00:07:31.386Z,0
2016-02-25T00:08:31.373Z,0
2016-02-25T00:09:31.330Z,0
2016-02-25T00:10:31.300Z,0
2016-02-25T00:11:31.257Z,0
2016-02-25T00:12:31.228Z,0
2016-02-25T00:13:31.199Z,0
2016-02-25T00:14:31.172Z,0
2016-02-25T00:15:31.127Z,0
2016-02-25T00:16:31.114Z,0
2016-02-25T00:17:31.070Z,0
2016-02-25T00:18:31.057Z,0
2016-02-25T00:19:31.060Z,0
2016-02-25T00:20:30.984Z,0
2016-02-25T00:21:30.956Z,0
2016-02-25T00:22:30.911Z,0
2016-02-25T00:23:30.898Z,0
2016-02-25T00:24:30.698Z,0
2016-02-25T00:25:30.826Z,0
2016-02-25T00:26:30.797Z,0
2016-02-25T00:27:30.769Z,0
2016-02-25T00:28:30.724Z,0
2016-02-25T00:29:30.711Z,0
2016-02-25T00:30:30.682Z,0
2016-02-25T00:31:30.639Z,0
2016-02-25T00:32:30.610Z,0
2016-02-25T00:33:30.581Z,0
2016-02-25T00:34:30.553Z,0
2016-02-25T00:35:30.509Z,0
2016-02-25T00:36:30.480Z,0
2016-02-25T00:37:30.468Z,0
2016-02-25T00:38:30.423Z,0
2016-02-25T00:39:30.395Z,0
2016-02-25T00:40:30.366Z,0
2016-02-25T00:41:30.337Z,0
2016-02-25T00:42:30.294Z,0
2016-02-25T00:43:30.264Z,0
2016-02-25T00:44:30.236Z,0
2016-02-25T00:45:30.208Z,0
2016-02-25T00:46:30.179Z,0
2016-02-25T00:47:30.151Z,0
2016-02-25T00:48:30.138Z,0
2016-02-25T00:49:30.094Z,0
2016-02-25T00:50:30.049Z,0
2016-02-25T00:51:30.021Z,0
2016-02-25T00:52:30.008Z,0
2016-02-25T00:53:29.963Z,0
2016-02-25T00:54:29.919Z,0
2016-02-25T00:55:29.890Z,0
2016-02-25T00:56:29.706Z,0
2016-02-25T00:57:29.834Z,0
2016-02-25T00:58:29.790Z,0
2016-02-25T00:59:29.760Z,0
2016-02-25T01:00:29.732Z,0
2016-02-25T01:01:29.704Z,0
2016-02-25T01:02:29.675Z,0
2016-02-25T01:03:29.646Z,0
2016-02-25T01:04:29.603Z,0
2016-02-25T01:05:29.605Z,0
2016-02-25T01:06:29.545Z,0
2016-02-25T01:07:29.532Z,0
2016-02-25T01:08:29.504Z,0
2016-02-25T01:09:29.444Z,0
2016-02-25T01:10:29.415Z,0
2016-02-25T01:11:29.387Z,0
2016-02-25T01:12:29.358Z,0
2016-02-25T01:13:29.345Z,0
2016-02-25T01:14:29.317Z,0
2016-02-25T01:15:29.272Z,0
2016-02-25T01:16:29.228Z,0
2016-02-25T01:17:29.200Z,0
2016-02-25T01:18:29.171Z,0
2016-02-25T01:19:29.158Z,0
2016-02-25T01:20:29.099Z,0
2016-02-25T01:21:29.070Z,0
2016-02-25T01:22:29.119Z,0
2016-02-25T01:23:29.013Z,0
2016-02-25T01:24:28.985Z,0
2016-02-25T01:25:28.971Z,0
2016-02-25T01:26:28.912Z,0
2016-02-25T01:27:28.149Z,0
2016-02-25T01:28:28.871Z,0
2016-02-25T01:29:28.841Z,0
2016-02-25T01:30:28.063Z,0
2016-02-25T01:31:29.081Z,0
2016-02-25T01:32:28.724Z,0
2016-02-25T01:33:28.712Z,0
2016-02-25T01:34:28.684Z,0
2016-02-25T01:35:28.639Z,0
2016-02-25T01:36:28.626Z,0
2016-02-25T01:37:28.582Z,0
2016-02-25T01:38:28.553Z,0
2016-02-25T01:39:28.509Z,0
2016-02-25T01:40:28.481Z,0
2016-02-25T01:41:28.484Z,0
2016-02-25T01:42:28.423Z,0
2016-02-25T01:43:28.379Z,0
2016-02-25T01:44:28.351Z,0
2016-02-25T01:45:28.339Z,0
2016-02-25T01:46:28.294Z,0
2016-02-25T01:47:28.249Z,0
2016-02-25T01:48:28.221Z,0
2016-02-25T01:49:28.208Z,0
2016-02-25T01:50:28.180Z,0
2016-02-25T01:51:28.136Z,0
2016-02-25T01:52:28.107Z,0
2016-02-25T01:53:28.063Z,0
2016-02-25T01:54:28.049Z,0
2016-02-25T01:55:28.005Z,0
2016-02-25T01:56:27.977Z,0
2016-02-25T01:57:27.948Z,0
2016-02-25T01:58:27.904Z,0
2016-02-25T01:59:27.876Z,0
2016-02-25T02:00:27.846Z,0
2016-02-25T02:01:27.834Z,0
2016-02-25T02:02:27.634Z,0
2016-02-25T02:03:27.762Z,0
2016-02-25T02:04:27.718Z,0
2016-02-25T02:05:27.642Z,0
2016-02-25T02:06:27.796Z,0
2016-02-25T02:07:27.564Z,0
2016-02-25T02:08:27.454Z,0
2016-02-25T02:09:28.088Z,0
2016-02-25T02:10:27.537Z,0
2016-02-25T02:11:27.492Z,0
2016-02-25T02:12:27.464Z,0
2016-02-25T02:13:27.435Z,0
2016-02-25T02:14:27.407Z,0
2016-02-25T02:15:27.378Z,0
2016-02-25T02:16:27.335Z,0
2016-02-25T02:17:27.305Z,0
2016-02-25T02:18:27.277Z,0
2016-02-25T02:19:27.249Z,0
2016-02-25T02:20:27.221Z,0
2016-02-25T02:21:27.192Z,0
2016-02-25T02:22:27.085Z,0
2016-02-25T02:23:27.118Z,0
2016-02-25T02:24:27.106Z,0
2016-02-25T02:25:27.046Z,0
2016-02-25T02:26:27.032Z,0
2016-02-25T02:27:27.051Z,0
2016-02-25T02:28:26.960Z,0
2016-02-25T02:29:26.932Z,0
2016-02-25T02:30:26.903Z,0
2016-02-25T02:31:26.875Z,0
2016-02-25T02:32:26.831Z,0
2016-02-25T02:33:26.834Z,0
2016-02-25T02:34:26.773Z,0
2016-02-25T02:35:26.745Z,0
2016-02-25T02:36:26.701Z,0
2016-02-25T02:37:26.672Z,0
2016-02-25T02:38:26.644Z,0
2016-02-25T02:39:26.631Z,0
2016-02-25T02:40:26.602Z,0
2016-02-25T02:41:26.667Z,0
2016-02-25T02:42:26.530Z,0
2016-02-25T02:43:26.486Z,0
2016-02-25T02:44:26.456Z,0
2016-02-25T02:45:26.427Z,0
2016-02-25T02:46:26.400Z,0
2016-02-25T02:47:26.355Z,0
2016-02-25T02:48:26.327Z,0
2016-02-25T02:49:26.298Z,0
2016-02-25T02:50:26.254Z,0
2016-02-25T02:51:26.241Z,0
2016-02-25T02:52:26.212Z,0
2016-02-25T02:53:26.168Z,0
2016-02-25T02:54:26.140Z,0
2016-02-25T02:55:26.111Z,0
2016-02-25T02:56:26.082Z,0
2016-02-25T02:57:26.038Z,0
2016-02-25T02:58:26.009Z,0
2016-02-25T02:59:25.981Z,0
2016-02-25T03:00:25.952Z,0
2016-02-25T03:01:25.908Z,0
2016-02-25T03:02:25.911Z,0
2016-02-25T03:03:25.882Z,0
2016-02-25T03:04:25.822Z,0
2016-02-25T03:05:25.784Z,0
2016-02-25T03:06:25.755Z,0
2016-02-25T03:07:25.741Z,0
2016-02-25T03:08:24.964Z,0
2016-02-25T03:09:25.669Z,0
2016-02-25T03:10:25.641Z,0
2016-02-25T03:11:25.612Z,0
2016-02-25T03:12:25.583Z,0
2016-02-25T03:13:25.383Z,0
2016-02-25T03:14:25.510Z,0
2016-02-25T03:15:25.467Z,0
2016-02-25T03:16:25.438Z,0
2016-02-25T03:17:25.410Z,0
2016-02-25T03:18:25.380Z,0
2016-02-25T03:19:25.352Z,0
2016-02-25T03:20:25.324Z,0
2016-02-25T03:21:25.295Z,0
2016-02-25T03:22:25.252Z,0
2016-02-25T03:23:25.238Z,0
2016-02-25T03:24:25.194Z,0
2016-02-25T03:25:25.165Z,0
2016-02-25T03:26:25.121Z,0
2016-02-25T03:27:25.092Z,0
2016-02-25T03:28:25.064Z,0
2016-02-25T03:29:25.034Z,0
2016-02-25T03:30:24.992Z,0
2016-02-25T03:31:24.962Z,0
2016-02-25T03:32:24.934Z,0
2016-02-25T03:33:24.906Z,0
2016-02-25T03:34:24.878Z,0
2016-02-25T03:35:24.848Z,0
2016-02-25T03:36:24.804Z,0
2016-02-25T03:37:24.789Z,0
2016-02-25T03:38:24.776Z,0
2016-02-25T03:39:24.700Z,0
2016-02-25T03:40:24.671Z,0
2016-02-25T03:41:24.643Z,0
2016-02-25T03:42:24.614Z,0
2016-02-25T03:43:24.602Z,0
2016-02-25T03:44:24.558Z,0
2016-02-25T03:45:24.514Z,0
2016-02-25T03:46:24.485Z,0
2016-02-25T03:47:24.455Z,0
2016-02-25T03:48:24.427Z,0
2016-02-25T03:49:24.399Z,0
2016-02-25T03:50:24.371Z,0
2016-02-25T03:51:24.357Z,0
2016-02-25T03:52:24.298Z,0
2016-02-25T03:53:23.581Z,0
2016-02-25T03:54:24.241Z,0
2016-02-25T03:55:24.196Z,0
2016-02-25T03:56:24.184Z,0
2016-02-25T03:57:24.139Z,0
2016-02-25T03:58:24.110Z,0
2016-02-25T03:59:24.067Z,0
2016-02-25T04:00:24.053Z,0
2016-02-25T04:01:24.009Z,0
2016-02-25T04:02:23.996Z,0
2016-02-25T04:03:23.937Z,0
2016-02-25T04:04:23.908Z,0
2016-02-25T04:05:23.898Z,0
2016-02-25T04:06:23.838Z,0
2016-02-25T04:07:23.857Z,0
2016-02-25T04:08:23.812Z,0
2016-02-25T04:09:23.752Z,0
2016-02-25T04:10:23.725Z,0
2016-02-25T04:11:23.695Z,0
2016-02-25T04:12:23.667Z,0
2016-02-25T04:13:23.622Z,0
2016-02-25T04:14:23.610Z,0
2016-02-25T04:15:23.566Z,0
2016-02-25T04:16:23.537Z,0
2016-02-25T04:17:23.493Z,0
2016-02-25T04:18:23.480Z,0
2016-02-25T04:19:23.436Z,0
2016-02-25T04:20:23.423Z,0
2016-02-25T04:21:23.379Z,0
2016-02-25T04:22:23.334Z,0
2016-02-25T04:23:23.305Z,0
2016-02-25T04:24:23.293Z,0
2016-02-25T04:25:23.248Z,0
2016-02-25T04:26:23.204Z,0
2016-02-25T04:27:23.177Z,0
2016-02-25T04:28:23.148Z,0
2016-02-25T04:29:23.118Z,0
2016-02-25T04:30:23.074Z,0
2016-02-25T04:31:23.062Z,0
2016-02-25T04:32:22.283Z,0
2016-02-25T04:33:22.989Z,0
2016-02-25T04:34:22.945Z,0
2016-02-25T04:35:22.931Z,0
2016-02-25T04:36:22.887Z,0
2016-02-25T04:37:22.843Z,0
2016-02-25T04:38:22.831Z,0
2016-02-25T04:39:22.786Z,0
2016-02-25T04:40:22.773Z,0
2016-02-25T04:41:22.729Z,0
2016-02-25T04:42:22.701Z,0
2016-02-25T04:43:22.656Z,0
2016-02-25T04:44:22.643Z,0
2016-02-25T04:45:22.600Z,0
2016-02-25T04:46:22.571Z,0
2016-02-25T04:47:22.558Z,0
2016-02-25T04:48:22.514Z,0
2016-02-25T04:49:22.469Z,0
2016-02-25T04:50:22.441Z,0
2016-02-25T04:51:22.413Z,0
2016-02-25T04:52:22.384Z,0
2016-02-25T04:53:22.340Z,0
2016-02-25T04:54:22.310Z,0
2016-02-25T04:55:22.266Z,0
2016-02-25T04:56:22.238Z,0
2016-02-25T04:57:22.209Z,0
2016-02-25T04:58:22.181Z,0
2016-02-25T04:59:22.152Z,0
2016-02-25T05:00:22.109Z,0
2016-02-25T05:01:22.096Z,0
2016-02-25T05:02:22.051Z,0
2016-02-25T05:03:22.023Z,0
2016-02-25T05:04:21.995Z,0
2016-02-25T05:05:21.950Z,0
2016-02-25T05:06:21.921Z,0
2016-02-25T05:07:21.893Z,0
2016-02-25T05:08:21.896Z,0
2016-02-25T05:09:21.664Z,0
2016-02-25T05:10:21.807Z,0
2016-02-25T05:11:21.779Z,0
2016-02-25T05:12:21.734Z,0
2016-02-25T05:13:21.690Z,0
2016-02-25T05:14:21.661Z,0
2016-02-25T05:15:21.634Z,0
2016-02-25T05:16:21.605Z,0
2016-02-25T05:17:21.561Z,0
2016-02-25T05:18:21.547Z,0
2016-02-25T05:19:21.519Z,0
2016-02-25T05:20:21.491Z,0
2016-02-25T05:21:21.447Z,0
2016-02-25T05:22:21.418Z,0
2016-02-25T05:23:21.436Z,0
2016-02-25T05:24:21.345Z,0
2016-02-25T05:25:21.176Z,0
2016-02-25T05:26:21.288Z,0
2016-02-25T05:27:21.307Z,0
2016-02-25T05:28:21.480Z,0
2016-02-25T05:29:21.187Z,0
2016-02-25T05:30:21.158Z,0
2016-02-25T05:31:21.130Z,0
2016-02-25T05:32:21.085Z,0
2016-02-25T05:33:21.072Z,0
2016-02-25T05:34:21.029Z,0
2016-02-25T05:35:20.999Z,0
2016-02-25T05:36:20.956Z,0
2016-02-25T05:37:20.943Z,0
2016-02-25T05:38:20.914Z,0
2016-02-25T05:39:20.885Z,0
2016-02-25T05:40:20.685Z,0
2016-02-25T05:41:20.813Z,0
2016-02-25T05:42:20.768Z,0
2016-02-25T05:43:20.739Z,0
2016-02-25T05:44:20.695Z,0
2016-02-25T05:45:20.667Z,0
2016-02-25T05:46:20.654Z,0
2016-02-25T05:47:20.453Z,0
2016-02-25T05:48:20.581Z,0
2016-02-25T05:49:20.380Z,0
2016-02-25T05:50:20.524Z,0
2016-02-25T05:51:20.480Z,0
2016-02-25T05:52:20.452Z,0
2016-02-25T05:53:20.454Z,0
2016-02-25T05:54:20.380Z,0
2016-02-25T05:55:20.334Z,0
2016-02-25T05:56:20.338Z,0
2016-02-25T05:57:20.293Z,0
2016-02-25T05:58:20.265Z,0
2016-02-25T05:59:20.236Z,0
2016-02-25T06:00:20.208Z,0
2016-02-25T06:01:20.163Z,0
2016-02-25T06:02:20.134Z,0
2016-02-25T06:03:20.090Z,0
2016-02-25T06:04:20.077Z,0
2016-02-25T06:05:20.034Z,0
2016-02-25T06:06:20.005Z,0
2016-02-25T06:07:19.976Z,0
2016-02-25T06:08:19.963Z,0
2016-02-25T06:09:19.903Z,0
2016-02-25T06:10:19.876Z,0
2016-02-25T06:11:19.846Z,0
2016-02-25T06:12:19.803Z,0
2016-02-25T06:13:19.789Z,5
2016-02-25T06:14:19.745Z,5
2016-02-25T06:15:19.717Z,5
2016-02-25T06:16:19.703Z,5
2016-02-25T06:17:19.659Z,5
2016-02-25T06:18:19.631Z,10
2016-02-25T06:19:19.587Z,10
2016-02-25T06:20:19.558Z,10
2016-02-25T06:21:19.514Z,10
2016-02-25T06:22:19.486Z,15
2016-02-25T06:23:19.457Z,15
2016-02-25T06:24:19.428Z,15
2016-02-25T06:25:19.400Z,20
2016-02-25T06:26:19.371Z,20
2016-02-25T06:27:19.327Z,20
2016-02-25T06:28:19.299Z,25
2016-02-25T06:29:19.255Z,25
2016-02-25T06:30:19.226Z,30
2016-02-25T06:31:19.213Z,30
2016-02-25T06:32:19.168Z,30
2016-02-25T06:33:19.140Z,35
2016-02-25T06:34:19.096Z,35
2016-02-25T06:35:19.067Z,40
2016-02-25T06:36:19.070Z,45
2016-02-25T06:37:18.995Z,45
2016-02-25T06:38:18.965Z,50
2016-02-25T06:39:18.953Z,55
2016-02-25T06:40:18.909Z,60
2016-02-25T06:41:18.881Z,60
2016-02-25T06:42:18.851Z,65
2016-02-25T06:43:18.807Z,70
2016-02-25T06:44:18.794Z,80
2016-02-25T06:45:18.735Z,85
2016-02-25T06:46:18.753Z,90
2016-02-25T06:47:17.975Z,90
2016-02-25T06:48:18.665Z,95
2016-02-25T06:49:18.652Z,100
2016-02-25T06:50:18.576Z,105
2016-02-25T06:51:18.563Z,105
2016-02-25T06:52:18.536Z,105
2016-02-25T06:53:18.538Z,100
2016-02-25T06:54:18.478Z,100
2016-02-25T06:55:18.434Z,100
2016-02-25T06:56:18.404Z,100
2016-02-25T06:57:18.361Z,105
2016-02-25T06:58:18.364Z,110
2016-02-25T06:59:18.299Z,115
2016-02-25T07:00:18.255Z,120
2016-02-25T07:01:18.289Z,125
2016-02-25T07:02:18.151Z,125
2016-02-25T07:03:18.124Z,125
2016-02-25T07:04:18.084Z,130
2016-02-25T07:05:17.896Z,125
2016-02-25T07:06:18.009Z,130
2016-02-25T07:07:17.975Z,130
2016-02-25T07:08:17.941Z,130
2016-02-25T07:09:17.908Z,130
2016-02-25T07:10:17.862Z,130
2016-02-25T07:11:17.816Z,135
2016-02-25T07:12:17.802Z,140
2016-02-25T07:13:17.772Z,145
2016-02-25T07:14:17.757Z,150
2016-02-25T07:15:17.696Z,155
2016-02-25T07:16:17.682Z,160
2016-02-25T07:17:17.622Z,170
2016-02-25T07:18:17.592Z,185
2016-02-25T07:19:17.579Z,195
2016-02-25T07:20:17.535Z,205
2016-02-25T07:21:17.507Z,215
2016-02-25T07:22:17.462Z,220
2016-02-25T07:23:17.434Z,220
2016-02-25T07:24:17.422Z,225
2016-02-25T07:25:17.360Z,230
2016-02-25T07:26:17.363Z,235
2016-02-25T07:27:17.147Z,240
2016-02-25T07:28:17.291Z,245
2016-02-25T07:29:17.246Z,245
2016-02-25T07:30:17.218Z,250
2016-02-25T07:31:17.205Z,260
2016-02-25T07:32:17.161Z,265
2016-02-25T07:33:17.133Z,275
2016-02-25T07:34:17.104Z,275
2016-02-25T07:35:17.060Z,275
2016-02-25T07:36:17.031Z,280
2016-02-25T07:37:17.002Z,285
2016-02-25T07:38:16.974Z,275
2016-02-25T07:39:16.946Z,270
2016-02-25T07:40:16.948Z,265
2016-02-25T07:41:16.920Z,260
2016-02-25T07:42:16.875Z,255
2016-02-25T07:43:16.831Z,250
2016-02-25T07:44:16.803Z,255
2016-02-25T07:45:16.774Z,255
2016-02-25T07:46:16.745Z,255
2016-02-25T07:47:16.717Z,250
2016-02-25T07:48:16.689Z,245
2016-02-25T07:49:16.659Z,240
2016-02-25T07:50:16.616Z,240
2016-02-25T07:51:16.602Z,235
2016-02-25T07:52:16.559Z,235
2016-02-25T07:53:16.545Z,235
2016-02-25T07:54:16.502Z,245
2016-02-25T07:55:16.488Z,255
2016-02-25T07:56:16.475Z,260
2016-02-25T07:57:16.400Z,265
2016-02-25T07:58:16.387Z,265
2016-02-25T07:59:16.359Z,270
2016-02-25T08:00:16.330Z,275
2016-02-25T08:01:16.286Z,275
2016-02-25T08:02:16.273Z,275
2016-02-25T08:03:16.229Z,270
2016-02-25T08:04:16.200Z,275
2016-02-25T08:05:16.172Z,275
2016-02-25T08:06:16.143Z,275
2016-02-25T08:07:16.115Z,275
2016-02-25T08:08:16.070Z,280
2016-02-25T08:09:16.057Z,290
2016-02-25T08:10:16.013Z,295
2016-02-25T08:11:16.079Z,300
2016-02-25T08:12:15.956Z,300
2016-02-25T08:13:15.912Z,295
2016-02-25T08:14:15.899Z,295
2016-02-25T08:15:15.870Z,295
2016-02-25T08:16:15.857Z,300
2016-02-25T08:17:15.813Z,300
2016-02-25T08:18:15.769Z,305
2016-02-25T08:19:15.756Z,290
2016-02-25T08:20:15.711Z,265
2016-02-25T08:21:15.684Z,260
2016-02-25T08:22:15.670Z,270
2016-02-25T08:23:15.626Z,280
2016-02-25T08:24:15.628Z,295
2016-02-25T08:25:15.553Z,295
2016-02-25T08:26:15.556Z,300
2016-02-25T08:27:15.544Z,310
2016-02-25T08:28:15.484Z,305
2016-02-25T08:29:15.533Z,310
2016-02-25T08:30:15.442Z,310
2016-02-25T08:31:15.397Z,315
2016-02-25T08:32:15.447Z,315
2016-02-25T08:33:15.371Z,315
2016-02-25T08:34:15.359Z,320
2016-02-25T08:35:15.283Z,320
2016-02-25T08:36:15.271Z,320
2016-02-25T08:37:15.227Z,325
2016-02-25T08:38:15.246Z,330
2016-02-25T08:39:15.169Z,330
2016-02-25T08:40:15.251Z,330
2016-02-25T08:41:15.129Z,330
2016-02-25T08:42:15.131Z,335
2016-02-25T08:43:15.023Z,355
2016-02-25T08:44:14.996Z,365
2016-02-25T08:45:14.967Z,355
2016-02-25T08:46:14.923Z,350
2016-02-25T08:47:14.926Z,345
2016-02-25T08:48:14.897Z,355
2016-02-25T08:49:14.837Z,375
2016-02-25T08:50:14.823Z,385
2016-02-25T08:51:14.780Z,385
2016-02-25T08:52:14.798Z,355
2016-02-25T08:53:14.722Z,345
2016-02-25T08:54:14.725Z,355
2016-02-25T08:55:14.666Z,355
2016-02-25T08:56:14.637Z,370
2016-02-25T08:57:14.609Z,355
2016-02-25T08:58:14.642Z,350
2016-02-25T08:59:14.552Z,340
2016-02-25T09:00:14.585Z,340
2016-02-25T09:01:14.494Z,340
2016-02-25T09:02:14.481Z,350
2016-02-25T09:03:14.562Z,350
2016-02-25T09:04:14.440Z,360
2016-02-25T09:05:14.380Z,355
2016-02-25T09:06:14.414Z,360
2016-02-25T09:07:14.355Z,360
2016-02-25T09:08:14.279Z,355
2016-02-25T09:09:14.296Z,360
2016-02-25T09:10:14.221Z,360
2016-02-25T09:11:14.224Z,355
2016-02-25T09:12:14.180Z,365
2016-02-25T09:13:14.151Z,370
2016-02-25T09:14:14.107Z,370
2016-02-25T09:15:14.094Z,370
2016-02-25T09:16:14.050Z,375
2016-02-25T09:17:14.037Z,375
2016-02-25T09:18:13.993Z,380
2016-02-25T09:19:13.981Z,380
2016-02-25T09:20:13.921Z,405
2016-02-25T09:21:13.939Z,440
2016-02-25T09:22:13.879Z,455
2016-02-25T09:23:14.101Z,470
2016-02-25T09:24:13.681Z,485
2016-02-25T09:25:13.793Z,485
2016-02-25T09:26:14.031Z,475
2016-02-25T09:27:14.298Z,475
2016-02-25T09:28:14.083Z,475
2016-02-25T09:29:13.679Z,465
2016-02-25T09:30:13.667Z,460
2016-02-25T09:31:13.653Z,460
2016-02-25T09:32:13.594Z,455
2016-02-25T09:33:13.612Z,460
2016-02-25T09:34:13.552Z,455
2016-02-25T09:35:13.509Z,450
2016-02-25T09:36:13.464Z,440
2016-02-25T09:37:13.451Z,435
2016-02-25T09:38:13.641Z,415
2016-02-25T09:39:13.410Z,395
2016-02-25T09:40:13.380Z,405
2016-02-25T09:41:13.336Z,385
2016-02-25T09:42:13.386Z,405
2016-02-25T09:43:13.280Z,400
2016-02-25T09:44:13.251Z,395
2016-02-25T09:45:13.066Z,410
2016-02-25T09:46:13.194Z,440
2016-02-25T09:47:13.010Z,450
2016-02-25T09:48:13.121Z,480
2016-02-25T09:49:13.124Z,460
2016-02-25T09:50:13.080Z,425
2016-02-25T09:51:13.160Z,435
2016-02-25T09:52:13.038Z,445
2016-02-25T09:53:12.994Z,455
2016-02-25T09:54:14.247Z,485
2016-02-25T09:55:12.953Z,530
2016-02-25T09:56:12.939Z,590
2016-02-25T09:57:12.880Z,685
2016-02-25T09:58:12.851Z,685
2016-02-25T09:59:12.839Z,680
2016-02-25T10:00:12.825Z,685
2016-02-25T10:01:12.797Z,730
2016-02-25T10:02:12.753Z,765
2016-02-25T10:03:12.709Z,745
2016-02-25T10:04:12.711Z,685
2016-02-25T10:05:12.651Z,625
2016-02-25T10:06:12.639Z,570
2016-02-25T10:07:12.625Z,530
2016-02-25T10:08:12.441Z,490
2016-02-25T10:09:12.553Z,465
2016-02-25T10:10:12.524Z,435
2016-02-25T10:11:12.527Z,450
2016-02-25T10:12:12.483Z,525
2016-02-25T10:13:12.454Z,580
2016-02-25T10:14:12.425Z,685
2016-02-25T10:15:12.397Z,735
2016-02-25T10:16:12.368Z,705
2016-02-25T10:17:12.340Z,655
2016-02-25T10:18:12.311Z,685
2016-02-25T10:19:12.299Z,730
2016-02-25T10:20:12.254Z,680
2016-02-25T10:21:12.226Z,570
2016-02-25T10:22:12.213Z,500
2016-02-25T10:23:12.168Z,495
2016-02-25T10:24:12.187Z,470
2016-02-25T10:25:12.159Z,410
2016-02-25T10:26:12.114Z,410
2016-02-25T10:27:12.085Z,430
2016-02-25T10:28:12.057Z,500
2016-02-25T10:29:12.028Z,420
2016-02-25T10:30:12.015Z,360
2016-02-25T10:31:11.987Z,435
2016-02-25T10:32:11.959Z,490
2016-02-25T10:33:11.930Z,450
2016-02-25T10:34:11.917Z,405
2016-02-25T10:35:11.873Z,435
2016-02-25T10:36:11.859Z,470
2016-02-25T10:37:11.816Z,495
2016-02-25T10:38:11.786Z,540
2016-02-25T10:39:11.789Z,535
2016-02-25T10:40:11.745Z,500
2016-02-25T10:41:11.702Z,485
2016-02-25T10:42:11.720Z,550
2016-02-25T10:43:11.661Z,565
2016-02-25T10:44:11.631Z,505
2016-02-25T10:45:11.619Z,455
2016-02-25T10:46:11.575Z,395
2016-02-25T10:47:11.546Z,410
2016-02-25T10:48:11.517Z,480
2016-02-25T10:49:11.504Z,495
2016-02-25T10:50:11.538Z,500
2016-02-25T10:51:11.463Z,520
2016-02-25T10:52:11.403Z,525
2016-02-25T10:53:11.390Z,540
2016-02-25T10:54:11.408Z,570
2016-02-25T10:55:11.348Z,580
2016-02-25T10:56:11.335Z,615
2016-02-25T10:57:11.291Z,655
2016-02-25T10:58:11.262Z,635
2016-02-25T10:59:11.235Z,700
2016-02-25T11:00:11.518Z,780
2016-02-25T11:01:11.412Z,790
2016-02-25T11:02:11.165Z,760
2016-02-25T11:03:11.120Z,735
2016-02-25T11:04:11.107Z,745
2016-02-25T11:05:10.938Z,790
2016-02-25T11:06:11.051Z,815
2016-02-25T11:07:11.023Z,870
2016-02-25T11:08:11.009Z,875
2016-02-25T11:09:10.981Z,800
2016-02-25T11:10:10.952Z,735
2016-02-25T11:11:10.940Z,725
2016-02-25T11:12:11.004Z,600
2016-02-25T11:13:10.898Z,565
2016-02-25T11:14:10.854Z,670
2016-02-25T11:15:10.825Z,695
2016-02-25T11:16:10.797Z,565
2016-02-25T11:17:10.784Z,515
2016-02-25T11:18:10.739Z,595
2016-02-25T11:19:10.914Z,660
2016-02-25T11:20:10.698Z,680
2016-02-25T11:21:10.686Z,650
2016-02-25T11:22:10.672Z,615
2016-02-25T11:23:10.613Z,590
2016-02-25T11:24:10.615Z,570
2016-02-25T11:25:10.569Z,635
2016-02-25T11:26:10.555Z,720
2016-02-25T11:27:10.528Z,820
2016-02-25T11:28:10.577Z,850
2016-02-25T11:29:10.470Z,780
2016-02-25T11:30:10.441Z,655
2016-02-25T11:31:10.428Z,540
2016-02-25T11:32:10.399Z,530
2016-02-25T11:33:10.402Z,560
2016-02-25T11:34:10.358Z,580
2016-02-25T11:35:10.330Z,625
2016-02-25T11:36:10.301Z,685
2016-02-25T11:37:10.148Z,695
2016-02-25T11:38:10.260Z,660
2016-02-25T11:39:10.232Z,610
2016-02-25T11:40:10.219Z,590
2016-02-25T11:41:10.237Z,600
2016-02-25T11:42:10.146Z,625
2016-02-25T11:43:10.133Z,620
2016-02-25T11:44:10.135Z,625
2016-02-25T11:45:10.107Z,630
2016-02-25T11:46:10.063Z,615
2016-02-25T11:47:10.065Z,620
2016-02-25T11:48:10.006Z,625
2016-02-25T11:49:09.992Z,635
2016-02-25T11:50:09.995Z,645
2016-02-25T11:51:09.951Z,630
2016-02-25T11:52:09.907Z,635
2016-02-25T11:53:09.909Z,615
2016-02-25T11:54:09.865Z,555
2016-02-25T11:55:09.852Z,505
2016-02-25T11:56:09.808Z,475
2016-02-25T11:57:09.639Z,485
2016-02-25T11:58:09.767Z,510
2016-02-25T11:59:09.770Z,570
2016-02-25T12:00:09.741Z,645
2016-02-25T12:01:09.712Z,710
2016-02-25T12:02:09.856Z,750
2016-02-25T12:03:09.764Z,830
2016-02-25T12:04:09.611Z,855
2016-02-25T12:05:09.691Z,840
2016-02-25T12:06:09.570Z,805
2016-02-25T12:07:09.541Z,785
2016-02-25T12:08:09.591Z,775
2016-02-25T12:09:09.500Z,745
2016-02-25T12:10:09.518Z,715
2016-02-25T12:11:09.458Z,685
2016-02-25T12:12:09.430Z,655
2016-02-25T12:13:09.402Z,660
2016-02-25T12:14:09.372Z,670
2016-02-25T12:15:09.360Z,675
2016-02-25T12:16:09.425Z,670
2016-02-25T12:17:09.302Z,640
2016-02-25T12:18:09.290Z,615
2016-02-25T12:19:09.293Z,630
2016-02-25T12:20:09.217Z,640
2016-02-25T12:21:09.204Z,645
2016-02-25T12:22:09.190Z,630
2016-02-25T12:23:09.146Z,585
2016-02-25T12:24:09.134Z,510
2016-02-25T12:25:09.120Z,415
2016-02-25T12:26:09.076Z,365
2016-02-25T12:27:09.063Z,375
2016-02-25T12:28:09.034Z,400
2016-02-25T12:29:09.022Z,360
2016-02-25T12:30:08.978Z,290
2016-02-25T12:31:08.981Z,225
2016-02-25T12:32:08.937Z,195
2016-02-25T12:33:08.783Z,185
2016-02-25T12:34:08.895Z,210
2016-02-25T12:35:08.882Z,225
2016-02-25T12:36:08.822Z,205
2016-02-25T12:37:08.825Z,190
2016-02-25T12:38:08.781Z,200
2016-02-25T12:39:08.753Z,190
2016-02-25T12:40:08.755Z,220
2016-02-25T12:41:08.727Z,285
2016-02-25T12:42:08.682Z,355
2016-02-25T12:43:08.654Z,410
2016-02-25T12:44:08.688Z,375
2016-02-25T12:45:08.627Z,320
2016-02-25T12:46:08.583Z,270
2016-02-25T12:47:08.554Z,220
2016-02-25T12:48:08.526Z,190
2016-02-25T12:49:08.513Z,180
2016-02-25T12:50:08.641Z,180
2016-02-25T12:51:08.457Z,175
2016-02-25T12:52:08.474Z,160
2016-02-25T12:53:08.415Z,155
2016-02-25T12:54:08.387Z,165
2016-02-25T12:55:08.358Z,175
2016-02-25T12:56:08.314Z,155
2016-02-25T12:57:08.332Z,135
2016-02-25T12:58:08.257Z,120
2016-02-25T12:59:08.087Z,110
2016-02-25T13:00:08.215Z,110
2016-02-25T13:01:08.203Z,110
2016-02-25T13:02:08.173Z,110
2016-02-25T13:03:08.145Z,100
2016-02-25T13:04:07.945Z,115
2016-02-25T13:05:08.103Z,115
2016-02-25T13:06:08.059Z,130
2016-02-25T13:07:08.062Z,200
2016-02-25T13:08:08.002Z,255
2016-02-25T13:09:07.974Z,310
2016-02-25T13:10:07.961Z,375
2016-02-25T13:11:07.916Z,405
2016-02-25T13:12:07.904Z,425
2016-02-25T13:13:07.875Z,420
2016-02-25T13:14:07.846Z,415
2016-02-25T13:15:07.834Z,415
2016-02-25T13:16:07.805Z,420
2016-02-25T13:17:07.761Z,410
2016-02-25T13:18:07.733Z,385
2016-02-25T13:19:07.719Z,370
2016-02-25T13:20:07.675Z,370
2016-02-25T13:21:07.678Z,365
2016-02-25T13:22:07.634Z,365
2016-02-25T13:23:07.605Z,385
2016-02-25T13:24:07.576Z,415
2016-02-25T13:25:07.563Z,455
2016-02-25T13:26:07.520Z,505
2016-02-25T13:27:07.522Z,545
2016-02-25T13:28:07.463Z,540
2016-02-25T13:29:07.465Z,515
2016-02-25T13:30:07.420Z,515
2016-02-25T13:31:07.393Z,480
2016-02-25T13:32:07.364Z,445
2016-02-25T13:33:07.350Z,435
2016-02-25T13:34:07.307Z,440
2016-02-25T13:35:07.309Z,435
2016-02-25T13:36:07.250Z,415
2016-02-25T13:37:07.565Z,390
2016-02-25T13:38:07.364Z,390
2016-02-25T13:39:07.226Z,380
2016-02-25T13:40:07.525Z,380
2016-02-25T13:41:07.122Z,400
2016-02-25T13:42:07.125Z,440
2016-02-25T13:43:07.081Z,460
2016-02-25T13:44:07.052Z,475
2016-02-25T13:45:07.008Z,470
2016-02-25T13:46:06.995Z,455
2016-02-25T13:47:07.357Z,445
2016-02-25T13:48:06.954Z,440
2016-02-25T13:49:06.910Z,445
2016-02-25T13:50:06.896Z,450
2016-02-25T13:51:07.008Z,465
2016-02-25T13:52:06.840Z,485
2016-02-25T13:53:06.796Z,495
2016-02-25T13:54:06.798Z,520
2016-02-25T13:55:06.785Z,540
2016-02-25T13:56:06.757Z,560
2016-02-25T13:57:06.696Z,600
2016-02-25T13:58:06.684Z,640
2016-02-25T13:59:06.718Z,680
2016-02-25T14:00:06.673Z,695
2016-02-25T14:01:06.614Z,705
2016-02-25T14:02:06.554Z,705
2016-02-25T14:03:06.525Z,675
2016-02-25T14:04:06.512Z,690
2016-02-25T14:05:06.500Z,650
2016-02-25T14:06:06.486Z,565
2016-02-25T14:07:06.442Z,485
2016-02-25T14:08:06.414Z,400
2016-02-25T14:09:06.401Z,345
2016-02-25T14:10:06.356Z,305
2016-02-25T14:11:06.344Z,265
2016-02-25T14:12:06.597Z,225
2016-02-25T14:13:06.303Z,190